KCNY/CNY METAR and TAF weather

Enter ICAO airport designator
Station Type Date Time Source
KCNY METAR 2020/03/28 19:53 UTC NOAA

KCNY 281953Z AUTO 27007KT 10SM FEW080 10/M08 A3007 RMK AO2 SLP181 T01001083


Station Type Date Time Source
KCNY Decoded METAR 2020/03/28 19:53 UTC NOAA

MOAB CANYONLANDS FIELD, UT, United States (KCNY) 38-46N 109-45W 1390M
Mar 28, 2020 - 03:53 PM EDT / 2020.03.28 1953 UTC
Wind: from the W (270 degrees) at 8 MPH (7 KT):0
Visibility: 10 mile(s):0
Sky conditions: mostly clear
Temperature: 50.0 F (10.0 C)
Dew Point: 17.1 F (-8.3 C)
Relative Humidity: 26%
Pressure (altimeter): 30.07 in. Hg (1018 hPa)
ob: KCNY 281953Z AUTO 27007KT 10SM FEW080 10/M08 A3007 RMK AO2 SLP181 T01001083
cycle: 20

Station Type Date Time Source
KCNY TAF 2020/03/28 18:40 UTC NOAA

TAF KCNY 281738Z 2818/2918 VRB04KT P6SM SKC
FM282000 28006KT P6SM FEW070 FEW150
FM290400 VRB04KT P6SM FEW070 SCT120
FM291400 VRB04KT P6SM BKN070

Example: see airport list